sensor_id;sensor_type;location;lat;lon;timestamp;pressure;altitude;pressure_sealevel;temperature;humidity
73860;BME280;62197;51.632;13.700;2023-07-20T00:01:14;99871.44;;;16.17;100.00
73860;BME280;62197;51.632;13.700;2023-07-20T00:03:39;99868.31;;;15.95;100.00
73860;BME280;62197;51.632;13.700;2023-07-20T00:06:04;99878.78;;;15.74;100.00
73860;BME280;62197;51.632;13.700;2023-07-20T00:08:30;99881.00;;;15.72;100.00
73860;BME280;62197;51.632;13.700;2023-07-20T00:10:55;99876.31;;;16.01;100.00
73860;BME280;62197;51.632;13.700;2023-07-20T00:13:20;99868.22;;;16.05;100.00
73860;BME280;62197;51.632;13.700;2023-07-20T00:15:47;99872.13;;;16.04;100.00
73860;BME280;62197;51.632;13.700;2023-07-20T00:18:12;99872.09;;;15.75;100.00
73860;BME280;62197;51.632;13.700;2023-07-20T00:20:38;99869.81;;;15.82;100.00
73860;BME280;62197;51.632;13.700;2023-07-20T00:23:04;99875.50;;;15.62;100.00
73860;BME280;62197;51.632;13.700;2023-07-20T00:25:29;99875.50;;;15.67;100.00
73860;BME280;62197;51.632;13.700;2023-07-20T00:27:54;99861.38;;;15.92;100.00
73860;BME280;62197;51.632;13.700;2023-07-20T00:30:20;99870.59;;;15.88;100.00
73860;BME280;62197;51.632;13.700;2023-07-20T00:32:45;99869.31;;;15.75;100.00
73860;BME280;62197;51.632;13.700;2023-07-20T00:35:10;99865.31;;;15.86;100.00
73860;BME280;62197;51.632;13.700;2023-07-20T00:37:37;99875.50;;;15.62;100.00
73860;BME280;62197;51.632;13.700;2023-07-20T00:40:02;99867.88;;;15.44;100.00
73860;BME280;62197;51.632;13.700;2023-07-20T00:42:30;99872.28;;;15.84;100.00
73860;BME280;62197;51.632;13.700;2023-07-20T00:44:56;99866.31;;;16.00;100.00
73860;BME280;62197;51.632;13.700;2023-07-20T00:47:21;99867.63;;;15.79;100.00
73860;BME280;62197;51.632;13.700;2023-07-20T00:49:46;99863.03;;;15.93;100.00
73860;BME280;62197;51.632;13.700;2023-07-20T00:52:13;99860.31;;;15.88;100.00
73860;BME280;62197;51.632;13.700;2023-07-20T00:54:40;99857.47;;;15.93;100.00
73860;BME280;62197;51.632;13.700;2023-07-20T00:57:07;99855.59;;;15.84;100.00
73860;BME280;62197;51.632;13.700;2023-07-20T00:59:34;99856.19;;;15.81;100.00
73860;BME280;62197;51.632;13.700;2023-07-20T01:01:59;99860.50;;;15.58;100.00
73860;BME280;62197;51.632;13.700;2023-07-20T01:04:24;99867.56;;;15.46;100.00
73860;BME280;62197;51.632;13.700;2023-07-20T01:07:02;99883.41;;;15.45;100.00
73860;BME280;62197;51.632;13.700;2023-07-20T01:09:45;99882.59;;;15.39;100.00
73860;BME280;62197;51.632;13.700;2023-07-20T01:12:20;99889.63;;;15.27;100.00
73860;BME280;62197;51.632;13.700;2023-07-20T01:14:48;99880.78;;;15.15;100.00
73860;BME280;62197;51.632;13.700;2023-07-20T01:17:13;99876.63;;;15.12;100.00
73860;BME280;62197;51.632;13.700;2023-07-20T01:19:39;99874.69;;;15.08;100.00
73860;BME280;62197;51.632;13.700;2023-07-20T01:33:10;99882.50;;;15.01;100.00
73860;BME280;62197;51.632;13.700;2023-07-20T01:35:38;99886.16;;;14.91;100.00
73860;BME280;62197;51.632;13.700;2023-07-20T01:38:03;99878.72;;;14.82;100.00
73860;BME280;62197;51.632;13.700;2023-07-20T01:40:29;99890.91;;;14.86;100.00
73860;BME280;62197;51.632;13.700;2023-07-20T01:42:55;99898.13;;;14.87;100.00
73860;BME280;62197;51.632;13.700;2023-07-20T01:45:20;99901.47;;;14.84;100.00
73860;BME280;62197;51.632;13.700;2023-07-20T01:47:46;99897.03;;;14.88;100.00
73860;BME280;62197;51.632;13.700;2023-07-20T01:50:11;99899.81;;;14.88;100.00
73860;BME280;62197;51.632;13.700;2023-07-20T01:52:36;99899.81;;;14.83;100.00
73860;BME280;62197;51.632;13.700;2023-07-20T01:55:02;99891.47;;;14.88;100.00
73860;BME280;62197;51.632;13.700;2023-07-20T01:57:27;99890.06;;;14.90;100.00
73860;BME280;62197;51.632;13.700;2023-07-20T01:59:53;99883.09;;;14.93;100.00
73860;BME280;62197;51.632;13.700;2023-07-20T02:02:18;99874.22;;;14.91;100.00
73860;BME280;62197;51.632;13.700;2023-07-20T02:04:43;99884.53;;;14.90;100.00
73860;BME280;62197;51.632;13.700;2023-07-20T02:07:09;99891.72;;;14.91;100.00
73860;BME280;62197;51.632;13.700;2023-07-20T02:09:34;99888.13;;;14.86;100.00
73860;BME280;62197;51.632;13.700;2023-07-20T02:11:59;99889.28;;;14.80;100.00
73860;BME280;62197;51.632;13.700;2023-07-20T02:14:25;99893.72;;;14.76;100.00
73860;BME280;62197;51.632;13.700;2023-07-20T02:16:50;99898.72;;;14.74;100.00
73860;BME280;62197;51.632;13.700;2023-07-20T02:25:09;99906.50;;;14.72;100.00
73860;BME280;62197;51.632;13.700;2023-07-20T02:27:36;99897.38;;;14.66;100.00
73860;BME280;62197;51.632;13.700;2023-07-20T02:30:01;99899.56;;;14.69;100.00
73860;BME280;62197;51.632;13.700;2023-07-20T02:32:28;99903.22;;;14.65;100.00
73860;BME280;62197;51.632;13.700;2023-07-20T02:34:53;99887.66;;;14.69;100.00
73860;BME280;62197;51.632;13.700;2023-07-20T02:37:19;99901.81;;;14.62;100.00
73860;BME280;62197;51.632;13.700;2023-07-20T02:39:44;99895.97;;;14.64;100.00
73860;BME280;62197;51.632;13.700;2023-07-20T02:42:10;99894.31;;;14.58;100.00
73860;BME280;62197;51.632;13.700;2023-07-20T02:44:35;99897.41;;;14.51;100.00
73860;BME280;62197;51.632;13.700;2023-07-20T02:47:00;99895.47;;;14.46;100.00
73860;BME280;62197;51.632;13.700;2023-07-20T02:49:26;99911.59;;;14.50;100.00
73860;BME280;62197;51.632;13.700;2023-07-20T02:51:52;99911.59;;;14.50;100.00
73860;BME280;62197;51.632;13.700;2023-07-20T02:54:17;99918.22;;;14.48;100.00
73860;BME280;62197;51.632;13.700;2023-07-20T02:56:43;99913.81;;;14.48;100.00
73860;BME280;62197;51.632;13.700;2023-07-20T02:59:08;99919.06;;;14.49;100.00
73860;BME280;62197;51.632;13.700;2023-07-20T03:01:34;99926.03;;;14.52;100.00
73860;BME280;62197;51.632;13.700;2023-07-20T03:03:59;99923.50;;;14.50;100.00
73860;BME280;62197;51.632;13.700;2023-07-20T03:06:24;99923.78;;;14.54;100.00
73860;BME280;62197;51.632;13.700;2023-07-20T03:08:50;99919.06;;;14.54;100.00
73860;BME280;62197;51.632;13.700;2023-07-20T03:11:18;99928.19;;;14.60;100.00
73860;BME280;62197;51.632;13.700;2023-07-20T03:13:43;99938.75;;;14.63;100.00
73860;BME280;62197;51.632;13.700;2023-07-20T03:16:10;99929.84;;;14.66;100.00
73860;BME280;62197;51.632;13.700;2023-07-20T03:18:37;99937.31;;;14.75;100.00
73860;BME280;62197;51.632;13.700;2023-07-20T03:21:03;99933.19;;;14.73;100.00
73860;BME280;62197;51.632;13.700;2023-07-20T03:23:28;99939.00;;;14.86;100.00
73860;BME280;62197;51.632;13.700;2023-07-20T03:25:53;99943.09;;;14.99;100.00
73860;BME280;62197;51.632;13.700;2023-07-20T03:28:20;99934.75;;;15.04;100.00
73860;BME280;62197;51.632;13.700;2023-07-20T03:30:45;99936.69;;;15.03;100.00
73860;BME280;62197;51.632;13.700;2023-07-20T03:33:11;99934.50;;;14.95;100.00
73860;BME280;62197;51.632;13.700;2023-07-20T03:35:37;99937.84;;;14.87;100.00
73860;BME280;62197;51.632;13.700;2023-07-20T03:38:02;99937.59;;;14.84;100.00
73860;BME280;62197;51.632;13.700;2023-07-20T03:40:27;99943.16;;;14.84;100.00
73860;BME280;62197;51.632;13.700;2023-07-20T03:42:53;99945.38;;;14.82;100.00
73860;BME280;62197;51.632;13.700;2023-07-20T03:45:18;99943.13;;;14.89;100.00
73860;BME280;62197;51.632;13.700;2023-07-20T03:47:43;99936.44;;;14.95;100.00
73860;BME280;62197;51.632;13.700;2023-07-20T03:50:10;99938.66;;;14.93;100.00
73860;BME280;62197;51.632;13.700;2023-07-20T03:52:36;99944.81;;;14.90;100.00
73860;BME280;62197;51.632;13.700;2023-07-20T03:55:01;99951.47;;;14.94;100.00
73860;BME280;62197;51.632;13.700;2023-07-20T03:57:26;99950.34;;;15.00;100.00
73860;BME280;62197;51.632;13.700;2023-07-20T03:59:52;99943.91;;;15.09;100.00
73860;BME280;62197;51.632;13.700;2023-07-20T04:02:17;99945.81;;;15.14;100.00
73860;BME280;62197;51.632;13.700;2023-07-20T04:04:42;99949.69;;;15.23;100.00
73860;BME280;62197;51.632;13.700;2023-07-20T04:07:08;99943.00;;;15.29;100.00
73860;BME280;62197;51.632;13.700;2023-07-20T04:09:34;99950.47;;;15.33;100.00
73860;BME280;62197;51.632;13.700;2023-07-20T04:11:59;99953.53;;;15.42;100.00
73860;BME280;62197;51.632;13.700;2023-07-20T04:14:25;99957.94;;;15.43;100.00
73860;BME280;62197;51.632;13.700;2023-07-20T04:16:50;99949.31;;;15.50;100.00
73860;BME280;62197;51.632;13.700;2023-07-20T04:19:16;99952.88;;;15.55;100.00
73860;BME280;62197;51.632;13.700;2023-07-20T04:21:43;99953.97;;;15.59;100.00
73860;BME280;62197;51.632;13.700;2023-07-20T04:24:08;99956.22;;;15.57;100.00
73860;BME280;62197;51.632;13.700;2023-07-20T04:26:33;99954.63;;;15.46;100.00
73860;BME280;62197;51.632;13.700;2023-07-20T04:28:59;99956.22;;;15.57;100.00
73860;BME280;62197;51.632;13.700;2023-07-20T04:31:24;99951.50;;;15.58;100.00
73860;BME280;62197;51.632;13.700;2023-07-20T04:33:50;99951.25;;;15.54;100.00
73860;BME280;62197;51.632;13.700;2023-07-20T04:36:15;99957.00;;;15.68;100.00
73860;BME280;62197;51.632;13.700;2023-07-20T04:38:44;99945.28;;;15.71;100.00
73860;BME280;62197;51.632;13.700;2023-07-20T04:41:10;99946.44;;;16.03;100.00
73860;BME280;62197;51.632;13.700;2023-07-20T04:43:37;99947.91;;;15.96;100.00
73860;BME280;62197;51.632;13.700;2023-07-20T04:46:05;99951.53;;;15.91;100.00
73860;BME280;62197;51.632;13.700;2023-07-20T04:48:31;99944.25;;;16.00;100.00
73860;BME280;62197;51.632;13.700;2023-07-20T04:50:56;99940.34;;;16.01;100.00
73860;BME280;62197;51.632;13.700;2023-07-20T04:53:21;99946.47;;;16.32;100.00
73860;BME280;62197;51.632;13.700;2023-07-20T04:55:49;99952.13;;;16.22;100.00
73860;BME280;62197;51.632;13.700;2023-07-20T04:58:20;99942.47;;;16.14;100.00
73860;BME280;62197;51.632;13.700;2023-07-20T05:00:47;99948.16;;;15.99;100.00
73860;BME280;62197;51.632;13.700;2023-07-20T05:03:13;99941.19;;;15.97;100.00
73860;BME280;62197;51.632;13.700;2023-07-20T05:05:38;99944.25;;;16.00;100.00
73860;BME280;62197;51.632;13.700;2023-07-20T05:08:04;99946.16;;;16.05;100.00
73860;BME280;62197;51.632;13.700;2023-07-20T05:10:29;99937.88;;;16.34;100.00
73860;BME280;62197;51.632;13.700;2023-07-20T05:12:54;99940.91;;;16.66;100.00
73860;BME280;62197;51.632;13.700;2023-07-20T05:15:20;99922.41;;;16.75;100.00
73860;BME280;62197;51.632;13.700;2023-07-20T05:17:45;99926.13;;;16.70;100.00
73860;BME280;62197;51.632;13.700;2023-07-20T05:20:10;99934.47;;;16.94;100.00
73860;BME280;62197;51.632;13.700;2023-07-20T05:22:37;99922.41;;;16.75;100.00
73860;BME280;62197;51.632;13.700;2023-07-20T05:25:08;99915.75;;;16.76;100.00
73860;BME280;62197;51.632;13.700;2023-07-20T05:27:34;99916.81;;;16.80;100.00
73860;BME280;62197;51.632;13.700;2023-07-20T05:30:00;99923.03;;;16.72;100.00
73860;BME280;62197;51.632;13.700;2023-07-20T05:32:25;99924.63;;;16.49;100.00
73860;BME280;62197;51.632;13.700;2023-07-20T05:34:54;99923.03;;;16.72;100.00
73860;BME280;62197;51.632;13.700;2023-07-20T05:37:20;99918.63;;;16.66;100.00
73860;BME280;62197;51.632;13.700;2023-07-20T05:39:45;99915.59;;;16.62;100.00
73860;BME280;62197;51.632;13.700;2023-07-20T05:42:10;99922.06;;;16.58;100.00
73860;BME280;62197;51.632;13.700;2023-07-20T05:44:36;99917.16;;;16.40;100.00
73860;BME280;62197;51.632;13.700;2023-07-20T05:47:01;99913.91;;;16.66;100.00
73860;BME280;62197;51.632;13.700;2023-07-20T05:49:27;99910.09;;;16.81;100.00
73860;BME280;62197;51.632;13.700;2023-07-20T05:51:53;99913.00;;;17.18;100.00
73860;BME280;62197;51.632;13.700;2023-07-20T05:54:19;99907.94;;;17.20;100.00
73860;BME280;62197;51.632;13.700;2023-07-20T05:56:45;99902.03;;;17.03;100.00
73860;BME280;62197;51.632;13.700;2023-07-20T05:59:10;99891.97;;;17.07;100.00
73860;BME280;62197;51.632;13.700;2023-07-20T06:01:36;99910.22;;;17.18;100.00
73860;BME280;62197;51.632;13.700;2023-07-20T06:04:01;99902.59;;;17.66;100.00
73860;BME280;62197;51.632;13.700;2023-07-20T06:06:28;99900.94;;;17.83;100.00
73860;BME280;62197;51.632;13.700;2023-07-20T06:08:54;99890.34;;;18.31;100.00
73860;BME280;62197;51.632;13.700;2023-07-20T06:11:19;99892.19;;;17.71;100.00
73860;BME280;62197;51.632;13.700;2023-07-20T06:13:45;99898.28;;;17.73;100.00
73860;BME280;62197;51.632;13.700;2023-07-20T06:16:10;99887.13;;;17.73;100.00
73860;BME280;62197;51.632;13.700;2023-07-20T06:18:35;99891.44;;;17.66;100.00
73860;BME280;62197;51.632;13.700;2023-07-20T06:21:01;99901.00;;;17.60;100.00
73860;BME280;62197;51.632;13.700;2023-07-20T06:23:26;99898.53;;;17.58;100.00
73860;BME280;62197;51.632;13.700;2023-07-20T06:25:51;99903.53;;;17.61;100.00
73860;BME280;62197;51.632;13.700;2023-07-20T06:28:17;99904.03;;;17.82;100.00
73860;BME280;62197;51.632;13.700;2023-07-20T06:30:43;99906.66;;;17.73;100.00
73860;BME280;62197;51.632;13.700;2023-07-20T06:33:08;99907.53;;;17.32;100.00
73860;BME280;62197;51.632;13.700;2023-07-20T06:35:34;99916.78;;;17.27;100.00
73860;BME280;62197;51.632;13.700;2023-07-20T06:38:01;99926.88;;;17.23;100.00
73860;BME280;62197;51.632;13.700;2023-07-20T06:40:26;99927.28;;;17.35;100.00
73860;BME280;62197;51.632;13.700;2023-07-20T06:42:52;99925.66;;;17.71;100.00
73860;BME280;62197;51.632;13.700;2023-07-20T06:45:17;99919.94;;;17.81;100.00
73860;BME280;62197;51.632;13.700;2023-07-20T06:47:42;99923.13;;;17.93;100.00
73860;BME280;62197;51.632;13.700;2023-07-20T06:50:08;99912.84;;;17.89;100.00
73860;BME280;62197;51.632;13.700;2023-07-20T06:52:34;99921.06;;;17.62;100.00
73860;BME280;62197;51.632;13.700;2023-07-20T06:54:59;99913.91;;;17.74;100.00
73860;BME280;62197;51.632;13.700;2023-07-20T06:57:25;99920.72;;;17.68;100.00
73860;BME280;62197;51.632;13.700;2023-07-20T06:59:50;99906.72;;;17.87;100.00
73860;BME280;62197;51.632;13.700;2023-07-20T07:02:16;99917.81;;;18.11;100.00
73860;BME280;62197;51.632;13.700;2023-07-20T07:04:42;99906.88;;;17.95;100.00
73860;BME280;62197;51.632;13.700;2023-07-20T07:07:07;99910.28;;;17.92;100.00
73860;BME280;62197;51.632;13.700;2023-07-20T07:09:32;99914.72;;;17.93;100.00
73860;BME280;62197;51.632;13.700;2023-07-20T07:11:58;99914.31;;;18.19;100.00
73860;BME280;62197;51.632;13.700;2023-07-20T07:14:23;99915.06;;;18.24;100.00
73860;BME280;62197;51.632;13.700;2023-07-20T07:16:48;99909.41;;;18.61;100.00
73860;BME280;62197;51.632;13.700;2023-07-20T07:19:14;99918.81;;;18.52;100.00
73860;BME280;62197;51.632;13.700;2023-07-20T07:21:39;99907.84;;;18.04;100.00
73860;BME280;62197;51.632;13.700;2023-07-20T07:24:05;99918.53;;;18.16;100.00
73860;BME280;62197;51.632;13.700;2023-07-20T07:26:32;99905.56;;;18.25;100.00
73860;BME280;62197;51.632;13.700;2023-07-20T07:28:57;99906.25;;;18.17;100.00
73860;BME280;62197;51.632;13.700;2023-07-20T07:31:24;99915.53;;;18.13;100.00
73860;BME280;62197;51.632;13.700;2023-07-20T07:33:50;99908.63;;;18.42;100.00
73860;BME280;62197;51.632;13.700;2023-07-20T07:36:15;99919.22;;;18.27;100.00
73860;BME280;62197;51.632;13.700;2023-07-20T07:38:40;99920.16;;;18.36;100.00
73860;BME280;62197;51.632;13.700;2023-07-20T07:41:06;99921.50;;;18.06;100.00
73860;BME280;62197;51.632;13.700;2023-07-20T07:43:31;99924.00;;;18.08;100.00
73860;BME280;62197;51.632;13.700;2023-07-20T07:45:56;99933.50;;;18.07;100.00
73860;BME280;62197;51.632;13.700;2023-07-20T07:48:22;99926.72;;;17.75;100.00
73860;BME280;62197;51.632;13.700;2023-07-20T07:50:47;99932.59;;;17.92;100.00
73860;BME280;62197;51.632;13.700;2023-07-20T07:53:13;99941.50;;;17.94;100.00
73860;BME280;62197;51.632;13.700;2023-07-20T07:55:38;99948.47;;;17.78;100.00
73860;BME280;62197;51.632;13.700;2023-07-20T07:58:03;99947.63;;;18.15;100.00
73860;BME280;62197;51.632;13.700;2023-07-20T08:00:29;99943.34;;;17.85;100.00
73860;BME280;62197;51.632;13.700;2023-07-20T08:02:54;99941.16;;;18.33;100.00
73860;BME280;62197;51.632;13.700;2023-07-20T08:05:20;99935.28;;;18.35;100.00
73860;BME280;62197;51.632;13.700;2023-07-20T08:07:45;99936.78;;;19.19;100.00
73860;BME280;62197;51.632;13.700;2023-07-20T08:10:10;99932.13;;;19.68;100.00
73860;BME280;62197;51.632;13.700;2023-07-20T08:12:36;99938.47;;;19.47;100.00
73860;BME280;62197;51.632;13.700;2023-07-20T08:15:02;99946.53;;;19.62;100.00
73860;BME280;62197;51.632;13.700;2023-07-20T08:17:27;99929.41;;;19.63;100.00
73860;BME280;62197;51.632;13.700;2023-07-20T08:19:52;99932.94;;;19.01;100.00
73860;BME280;62197;51.632;13.700;2023-07-20T08:22:18;99935.97;;;18.91;100.00
73860;BME280;62197;51.632;13.700;2023-07-20T08:24:43;99950.34;;;18.98;100.00
73860;BME280;62197;51.632;13.700;2023-07-20T08:27:09;99940.44;;;19.46;100.00
73860;BME280;62197;51.632;13.700;2023-07-20T08:29:35;99943.03;;;19.43;100.00
73860;BME280;62197;51.632;13.700;2023-07-20T08:32:01;99942.25;;;19.78;100.00
73860;BME280;62197;51.632;13.700;2023-07-20T08:34:27;99943.34;;;19.41;100.00
73860;BME280;62197;51.632;13.700;2023-07-20T08:36:52;99933.81;;;19.42;100.00
73860;BME280;62197;51.632;13.700;2023-07-20T08:39:17;99942.22;;;19.92;100.00
73860;BME280;62197;51.632;13.700;2023-07-20T08:41:43;99937.34;;;20.19;100.00
73860;BME280;62197;51.632;13.700;2023-07-20T08:44:10;99932.28;;;19.86;100.00
73860;BME280;62197;51.632;13.700;2023-07-20T08:46:37;99947.13;;;19.18;100.00
73860;BME280;62197;51.632;13.700;2023-07-20T08:49:03;99934.41;;;19.12;100.00
73860;BME280;62197;51.632;13.700;2023-07-20T08:51:29;99937.25;;;19.75;100.00
73860;BME280;62197;51.632;13.700;2023-07-20T08:53:55;99934.78;;;19.73;100.00
73860;BME280;62197;51.632;13.700;2023-07-20T08:56:20;99934.84;;;19.46;100.00
73860;BME280;62197;51.632;13.700;2023-07-20T08:58:49;99928.19;;;19.29;100.00
73860;BME280;62197;51.632;13.700;2023-07-20T09:01:15;99933.41;;;19.35;100.00
73860;BME280;62197;51.632;13.700;2023-07-20T09:03:41;99933.06;;;19.86;100.00
73860;BME280;62197;51.632;13.700;2023-07-20T09:06:08;99925.56;;;20.53;100.00
73860;BME280;62197;51.632;13.700;2023-07-20T09:08:37;99922.00;;;20.61;100.00
73860;BME280;62197;51.632;13.700;2023-07-20T09:11:03;99922.63;;;20.58;100.00
73860;BME280;62197;51.632;13.700;2023-07-20T09:13:29;99931.16;;;20.09;100.00
73860;BME280;62197;51.632;13.700;2023-07-20T09:15:54;99932.84;;;19.96;100.00
73860;BME280;62197;51.632;13.700;2023-07-20T09:18:24;99934.56;;;19.84;100.00
73860;BME280;62197;51.632;13.700;2023-07-20T09:20:51;99936.03;;;20.39;100.00
73860;BME280;62197;51.632;13.700;2023-07-20T09:23:16;99930.84;;;21.07;100.00
73860;BME280;62197;51.632;13.700;2023-07-20T09:25:42;99928.06;;;20.85;100.00
73860;BME280;62197;51.632;13.700;2023-07-20T09:28:07;99905.44;;;20.82;100.00
73860;BME280;62197;51.632;13.700;2023-07-20T09:30:33;99915.03;;;20.81;100.00
73860;BME280;62197;51.632;13.700;2023-07-20T09:32:58;99916.91;;;20.63;100.00
73860;BME280;62197;51.632;13.700;2023-07-20T09:35:24;99925.16;;;20.68;100.00
73860;BME280;62197;51.632;13.700;2023-07-20T09:38:00;99925.31;;;20.63;100.00
73860;BME280;62197;51.632;13.700;2023-07-20T09:40:26;99919.81;;;20.58;100.00
73860;BME280;62197;51.632;13.700;2023-07-20T09:42:55;99921.31;;;21.25;100.00
73860;BME280;62197;51.632;13.700;2023-07-20T09:45:35;99915.25;;;21.32;100.00
73860;BME280;62197;51.632;13.700;2023-07-20T09:48:05;99922.75;;;21.71;100.00
73860;BME280;62197;51.632;13.700;2023-07-20T09:50:31;99917.25;;;21.40;100.00
73860;BME280;62197;51.632;13.700;2023-07-20T09:52:58;99914.31;;;21.53;100.00
73860;BME280;62197;51.632;13.700;2023-07-20T09:55:26;99916.56;;;21.34;100.00
73860;BME280;62197;51.632;13.700;2023-07-20T09:57:52;99915.44;;;21.52;100.00
73860;BME280;62197;51.632;13.700;2023-07-20T10:00:19;99922.06;;;21.56;100.00
73860;BME280;62197;51.632;13.700;2023-07-20T10:02:45;99915.28;;;21.40;100.00
73860;BME280;62197;51.632;13.700;2023-07-20T10:05:14;99918.69;;;21.85;100.00
73860;BME280;62197;51.632;13.700;2023-07-20T10:07:44;99916.06;;;21.32;100.00
73860;BME280;62197;51.632;13.700;2023-07-20T10:10:11;99916.44;;;21.56;100.00
73860;BME280;62197;51.632;13.700;2023-07-20T10:12:37;99902.72;;;21.38;100.00
73860;BME280;62197;51.632;13.700;2023-07-20T10:17:30;99903.09;;;21.53;100.00
73860;BME280;62197;51.632;13.700;2023-07-20T10:19:57;99894.19;;;21.60;100.00
73860;BME280;62197;51.632;13.700;2023-07-20T10:22:26;99901.25;;;21.40;100.00
73860;BME280;62197;51.632;13.700;2023-07-20T10:24:52;99892.66;;;21.45;100.00
73860;BME280;62197;51.632;13.700;2023-07-20T10:27:20;99900.50;;;21.83;100.00
73860;BME280;62197;51.632;13.700;2023-07-20T10:29:46;99899.78;;;21.69;100.00
73860;BME280;62197;51.632;13.700;2023-07-20T10:32:12;99903.50;;;21.95;100.00
73860;BME280;62197;51.632;13.700;2023-07-20T10:34:38;99901.25;;;21.40;100.00
73860;BME280;62197;51.632;13.700;2023-07-20T10:37:04;99896.81;;;21.65;100.00
73860;BME280;62197;51.632;13.700;2023-07-20T10:39:33;99900.31;;;21.79;100.00
73860;BME280;62197;51.632;13.700;2023-07-20T10:42:08;99897.22;;;21.24;100.00
73860;BME280;62197;51.632;13.700;2023-07-20T10:44:37;99897.00;;;21.04;100.00
73860;BME280;62197;51.632;13.700;2023-07-20T10:47:03;99892.38;;;20.77;100.00
73860;BME280;62197;51.632;13.700;2023-07-20T10:49:34;99887.25;;;20.40;100.00
73860;BME280;62197;51.632;13.700;2023-07-20T10:52:04;99891.16;;;21.00;100.00
73860;BME280;62197;51.632;13.700;2023-07-20T10:56:56;99900.34;;;22.05;100.00
73860;BME280;62197;51.632;13.700;2023-07-20T11:01:56;99888.25;;;22.38;100.00
73860;BME280;62197;51.632;13.700;2023-07-20T11:04:44;99898.50;;;22.43;100.00
73860;BME280;62197;51.632;13.700;2023-07-20T11:07:10;99893.31;;;23.17;100.00
73860;BME280;62197;51.632;13.700;2023-07-20T11:09:37;99896.84;;;23.64;100.00
73860;BME280;62197;51.632;13.700;2023-07-20T11:12:09;99892.41;;;23.34;99.35
73860;BME280;62197;51.632;13.700;2023-07-20T11:14:42;99884.75;;;24.78;92.03
73860;BME280;62197;51.632;13.700;2023-07-20T11:17:15;99882.00;;;26.15;78.67
73860;BME280;62197;51.632;13.700;2023-07-20T11:19:41;99884.81;;;26.42;81.13
73860;BME280;62197;51.632;13.700;2023-07-20T11:22:06;99866.38;;;25.41;80.70
73860;BME280;62197;51.632;13.700;2023-07-20T11:24:39;99871.72;;;25.34;83.30
73860;BME280;62197;51.632;13.700;2023-07-20T11:27:04;99873.78;;;24.32;88.96
73860;BME280;62197;51.632;13.700;2023-07-20T11:29:30;99877.34;;;23.38;92.87
73860;BME280;62197;51.632;13.700;2023-07-20T11:31:56;99875.03;;;23.23;100.00
73860;BME280;62197;51.632;13.700;2023-07-20T11:34:21;99893.47;;;23.20;98.72
73860;BME280;62197;51.632;13.700;2023-07-20T11:36:48;99890.56;;;23.29;100.00
73860;BME280;62197;51.632;13.700;2023-07-20T11:39:16;99889.25;;;22.97;100.00
73860;BME280;62197;51.632;13.700;2023-07-20T11:41:50;99885.44;;;23.40;100.00
73860;BME280;62197;51.632;13.700;2023-07-20T11:44:16;99888.88;;;23.66;98.61
73860;BME280;62197;51.632;13.700;2023-07-20T11:46:42;99890.00;;;23.15;100.00
73860;BME280;62197;51.632;13.700;2023-07-20T11:49:09;99891.19;;;22.68;100.00
73860;BME280;62197;51.632;13.700;2023-07-20T11:51:35;99886.25;;;22.39;100.00
73860;BME280;62197;51.632;13.700;2023-07-20T11:54:02;99885.44;;;21.79;100.00
73860;BME280;62197;51.632;13.700;2023-07-20T11:56:27;99895.66;;;21.58;100.00
73860;BME280;62197;51.632;13.700;2023-07-20T11:59:00;99896.34;;;21.72;100.00
73860;BME280;62197;51.632;13.700;2023-07-20T12:01:28;99906.63;;;20.89;100.00
73860;BME280;62197;51.632;13.700;2023-07-20T12:04:01;99926.22;;;20.28;100.00
73860;BME280;62197;51.632;13.700;2023-07-20T12:06:29;99919.41;;;19.85;100.00
73860;BME280;62197;51.632;13.700;2023-07-20T12:08:56;99920.63;;;19.92;100.00
73860;BME280;62197;51.632;13.700;2023-07-20T12:14:01;99915.41;;;20.65;100.00
73860;BME280;62197;51.632;13.700;2023-07-20T12:16:27;99909.88;;;21.05;100.00
73860;BME280;62197;51.632;13.700;2023-07-20T12:19:02;99905.16;;;21.22;100.00
73860;BME280;62197;51.632;13.700;2023-07-20T12:21:29;99908.56;;;21.67;100.00
73860;BME280;62197;51.632;13.700;2023-07-20T12:23:56;99913.38;;;22.35;100.00
73860;BME280;62197;51.632;13.700;2023-07-20T12:26:23;99895.69;;;22.09;100.00
73860;BME280;62197;51.632;13.700;2023-07-20T12:28:49;99907.38;;;22.54;100.00
73860;BME280;62197;51.632;13.700;2023-07-20T12:31:14;99892.03;;;22.51;100.00
73860;BME280;62197;51.632;13.700;2023-07-20T12:33:40;99892.88;;;21.75;100.00
73860;BME280;62197;51.632;13.700;2023-07-20T12:36:06;99895.22;;;21.90;100.00
73860;BME280;62197;51.632;13.700;2023-07-20T12:38:31;99898.00;;;22.07;100.00
73860;BME280;62197;51.632;13.700;2023-07-20T12:40:57;99904.09;;;22.52;100.00
73860;BME280;62197;51.632;13.700;2023-07-20T12:43:23;99904.31;;;21.87;100.00
73860;BME280;62197;51.632;13.700;2023-07-20T12:45:49;99897.16;;;22.32;100.00
73860;BME280;62197;51.632;13.700;2023-07-20T12:48:14;99900.97;;;22.36;100.00
73860;BME280;62197;51.632;13.700;2023-07-20T12:50:39;99906.56;;;22.53;100.00
73860;BME280;62197;51.632;13.700;2023-07-20T12:53:05;99893.16;;;23.72;100.00
73860;BME280;62197;51.632;13.700;2023-07-20T12:55:30;99898.25;;;24.40;100.00
73860;BME280;62197;51.632;13.700;2023-07-20T12:57:55;99895.28;;;24.69;100.00
73860;BME280;62197;51.632;13.700;2023-07-20T13:00:20;99895.06;;;24.09;100.00
73860;BME280;62197;51.632;13.700;2023-07-20T13:02:48;99895.47;;;23.11;100.00